createdAt,value
2023-01-04T00:01:39.206Z,89.89
2023-01-04T00:04:06.073Z,90.67
2023-01-04T00:06:32.655Z,90.76
2023-01-04T00:08:59.193Z,90.67
2023-01-04T00:11:25.658Z,90.42
2023-01-04T00:13:57.623Z,90.87
2023-01-04T00:16:26.312Z,91.31
2023-01-04T00:18:54.462Z,91.56
2023-01-04T00:21:24.410Z,91.18
2023-01-04T00:23:53.714Z,92.42
2023-01-04T00:26:24.798Z,92.91
2023-01-04T00:28:56.329Z,93.02
2023-01-04T00:31:24.119Z,93.64
2023-01-04T00:33:55.569Z,93.92
2023-01-04T00:36:22.944Z,94.26
2023-01-04T00:39:06.281Z,94.40
2023-01-04T00:41:58.088Z,94.02
2023-01-04T00:44:23.677Z,94.10
2023-01-04T00:46:53.290Z,93.87
2023-01-04T00:49:19.821Z,93.68
2023-01-04T00:51:46.372Z,93.94
2023-01-04T00:54:14.220Z,93.79
2023-01-04T00:56:41.305Z,93.60
2023-01-04T00:59:09.222Z,94.07
2023-01-04T01:01:36.044Z,93.68
2023-01-04T01:04:04.113Z,93.24
2023-01-04T01:06:32.260Z,93.01
2023-01-04T01:08:59.617Z,93.00
2023-01-04T01:11:27.193Z,92.56
2023-01-04T01:13:53.842Z,92.49
2023-01-04T01:16:51.621Z,92.51
2023-01-04T01:19:09.455Z,93.35
2023-01-04T01:21:37.177Z,93.86
2023-01-04T01:24:04.486Z,93.81
2023-01-04T01:26:31.613Z,93.42
2023-01-04T01:28:58.415Z,93.27
2023-01-04T01:31:27.413Z,93.01
2023-01-04T01:33:56.038Z,92.96
2023-01-04T01:36:24.548Z,93.12
2023-01-04T01:38:51.206Z,92.92
2023-01-04T01:41:22.753Z,92.85
2023-01-04T01:43:56.722Z,93.10
2023-01-04T01:46:30.855Z,93.02
2023-01-04T01:49:03.556Z,92.97
2023-01-04T01:51:33.009Z,92.91
2023-01-04T01:54:08.282Z,92.84
2023-01-04T01:56:38.999Z,93.01
2023-01-04T01:59:06.648Z,92.83
2023-01-04T02:01:33.469Z,92.97
2023-01-04T02:04:01.860Z,92.95
2023-01-04T02:06:33.509Z,92.90
2023-01-04T02:09:01.462Z,92.77
2023-01-04T02:11:28.232Z,92.76
2023-01-04T02:14:09.740Z,92.87
2023-01-04T02:16:56.166Z,92.96
2023-01-04T02:20:00.439Z,92.61
2023-01-04T02:23:01.293Z,92.69
2023-01-04T02:25:53.268Z,92.79
2023-01-04T02:28:51.017Z,92.89
2023-01-04T02:31:36.862Z,92.77
2023-01-04T02:34:20.047Z,92.74
2023-01-04T02:36:57.846Z,92.70
2023-01-04T02:39:35.774Z,92.80
2023-01-04T02:42:15.462Z,92.78
2023-01-04T02:44:52.922Z,92.92
2023-01-04T02:47:42.348Z,92.93
2023-01-04T02:50:32.563Z,92.90
2023-01-04T02:53:17.763Z,92.98
2023-01-04T02:56:00.472Z,93.20
2023-01-04T02:59:03.495Z,93.09
2023-01-04T03:02:03.734Z,93.32
2023-01-04T03:05:03.838Z,93.36
2023-01-04T03:07:46.172Z,93.29
2023-01-04T03:10:27.214Z,93.40
2023-01-04T03:13:00.851Z,93.20
2023-01-04T03:15:33.743Z,93.19
2023-01-04T03:18:10.761Z,93.13
2023-01-04T03:20:37.330Z,93.01
2023-01-04T03:23:25.387Z,92.97
2023-01-04T03:26:15.695Z,92.87
2023-01-04T03:28:55.902Z,92.98
2023-01-04T03:31:46.267Z,92.96
2023-01-04T03:34:26.415Z,92.80
2023-01-04T03:36:59.869Z,93.08
2023-01-04T03:39:56.948Z,93.06
2023-01-04T03:42:57.306Z,92.99
2023-01-04T03:45:47.527Z,92.99
2023-01-04T03:48:37.491Z,93.10
2023-01-04T03:51:13.937Z,92.99
2023-01-04T03:54:04.329Z,92.98
2023-01-04T03:56:32.988Z,92.99
2023-01-04T03:59:00.174Z,92.98
2023-01-04T04:01:28.344Z,92.99
2023-01-04T04:04:09.419Z,93.12
2023-01-04T04:06:49.783Z,93.05
2023-01-04T04:09:16.323Z,93.22
2023-01-04T04:11:42.868Z,93.36
2023-01-04T04:14:09.377Z,93.28
2023-01-04T04:16:35.995Z,93.59
2023-01-04T04:19:08.228Z,93.58
2023-01-04T04:21:35.931Z,93.61
2023-01-04T04:24:03.257Z,93.45
2023-01-04T04:26:30.104Z,93.77
2023-01-04T04:28:56.713Z,93.67
2023-01-04T04:31:23.178Z,93.64
2023-01-04T04:33:49.622Z,93.46
2023-01-04T04:36:16.122Z,93.46
2023-01-04T04:38:42.700Z,93.58
2023-01-04T04:41:22.431Z,93.80
2023-01-04T04:43:48.902Z,94.32
2023-01-04T04:46:15.441Z,94.68
2023-01-04T04:48:41.987Z,94.51
2023-01-04T04:51:08.553Z,94.52
2023-01-04T04:53:35.120Z,94.62
2023-01-04T04:56:01.744Z,96.19
2023-01-04T04:58:28.214Z,96.47
2023-01-04T05:00:54.693Z,95.83
2023-01-04T05:03:21.298Z,95.83
2023-01-04T05:05:47.859Z,95.55
2023-01-04T05:08:14.551Z,96.26
2023-01-04T05:10:41.151Z,96.67
2023-01-04T05:13:12.208Z,96.34
2023-01-04T05:15:43.551Z,96.09
2023-01-04T05:18:12.729Z,95.82
2023-01-04T05:20:39.491Z,95.46
2023-01-04T05:23:07.392Z,95.42
2023-01-04T05:25:34.195Z,95.41
2023-01-04T05:28:01.722Z,95.27
2023-01-04T05:30:45.490Z,95.11
2023-01-04T05:33:12.199Z,95.10
2023-01-04T05:35:38.879Z,95.23
2023-01-04T05:38:05.416Z,95.06
2023-01-04T05:40:32.046Z,94.94
2023-01-04T05:42:58.665Z,95.20
2023-01-04T05:45:25.430Z,95.09
2023-01-04T05:47:52.836Z,94.99
2023-01-04T05:50:21.535Z,94.84
2023-01-04T05:52:48.651Z,94.83
2023-01-04T05:55:15.405Z,94.74
2023-01-04T05:57:42.222Z,94.65
2023-01-04T06:00:11.567Z,94.49
2023-01-04T06:02:40.614Z,94.36
2023-01-04T06:05:09.089Z,94.36
2023-01-04T06:07:36.490Z,94.37
2023-01-04T06:10:03.238Z,94.47
2023-01-04T06:12:29.893Z,94.34
2023-01-04T06:14:56.454Z,94.40
2023-01-04T06:17:23.145Z,94.37
2023-01-04T06:19:49.803Z,94.20
2023-01-04T06:22:17.241Z,93.99
2023-01-04T06:24:43.699Z,94.13
2023-01-04T06:27:10.390Z,94.18
2023-01-04T06:29:37.255Z,93.96
2023-01-04T06:32:03.952Z,93.90
2023-01-04T06:34:31.437Z,94.40
2023-01-04T06:36:58.405Z,94.45
2023-01-04T06:39:25.083Z,94.37
2023-01-04T06:41:51.973Z,94.46
2023-01-04T06:44:18.562Z,94.54
2023-01-04T06:46:45.145Z,94.86
2023-01-04T06:49:11.910Z,94.79
2023-01-04T06:51:38.502Z,94.93
2023-01-04T06:54:05.475Z,94.45
2023-01-04T06:56:32.832Z,94.99
2023-01-04T06:58:59.550Z,94.67
2023-01-04T07:01:26.292Z,94.94
2023-01-04T07:03:52.980Z,95.04
2023-01-04T07:06:19.627Z,94.73
2023-01-04T07:08:46.427Z,94.62
2023-01-04T07:11:12.909Z,94.95
2023-01-04T07:13:39.448Z,95.04
2023-01-04T07:16:06.321Z,94.60
2023-01-04T07:18:32.990Z,94.82
2023-01-04T07:20:59.762Z,94.74
2023-01-04T07:23:26.409Z,94.69
2023-01-04T07:25:52.945Z,94.56
2023-01-04T07:28:32.534Z,94.34
2023-01-04T07:31:03.912Z,94.69
2023-01-04T07:33:30.469Z,94.12
2023-01-04T07:36:02.430Z,94.36
2023-01-04T07:38:28.966Z,93.87
2023-01-04T07:40:56.293Z,94.00
2023-01-04T07:43:27.986Z,93.86
2023-01-04T07:45:56.384Z,93.89
2023-01-04T07:48:23.013Z,93.75
2023-01-04T07:50:49.793Z,93.63
2023-01-04T07:53:16.674Z,93.76
2023-01-04T07:55:43.258Z,93.60
2023-01-04T07:58:14.473Z,93.66
2023-01-04T08:01:07.011Z,93.44
2023-01-04T08:03:34.293Z,93.34
2023-01-04T08:06:04.824Z,93.33
2023-01-04T08:08:34.172Z,93.13
2023-01-04T08:11:05.097Z,92.99
2023-01-04T08:13:38.698Z,92.77
2023-01-04T08:16:05.741Z,92.44
2023-01-04T08:18:35.596Z,92.69
2023-01-04T08:21:09.949Z,92.47
2023-01-04T08:23:37.472Z,92.35
2023-01-04T08:26:09.782Z,92.11
2023-01-04T08:28:36.437Z,92.04
2023-01-04T08:31:06.123Z,91.76
2023-01-04T08:33:36.482Z,91.96
2023-01-04T08:36:07.824Z,91.72
2023-01-04T08:41:55.974Z,91.73
2023-01-04T08:44:11.085Z,91.64
2023-01-04T08:46:37.930Z,91.28
2023-01-04T08:49:04.544Z,91.14
2023-01-04T08:51:31.092Z,90.90
2023-01-04T08:54:00.088Z,90.63
2023-01-04T08:56:28.021Z,90.42
2023-01-04T08:58:54.509Z,90.51
2023-01-04T09:01:21.188Z,90.56
2023-01-04T09:03:47.955Z,90.75
2023-01-04T09:06:15.053Z,90.54
2023-01-04T09:08:43.395Z,90.66
2023-01-04T09:11:14.518Z,90.64
2023-01-04T09:13:41.605Z,91.02
2023-01-04T09:16:11.910Z,90.28
2023-01-04T09:18:38.447Z,90.25
2023-01-04T09:21:07.429Z,90.13
2023-01-04T09:23:34.979Z,90.04
2023-01-04T09:26:09.461Z,89.69
2023-01-04T09:28:37.404Z,88.89
2023-01-04T09:31:08.092Z,88.90
2023-01-04T09:34:03.889Z,88.25
2023-01-04T09:36:21.369Z,87.59
2023-01-04T09:38:51.430Z,87.46
2023-01-04T09:41:26.985Z,86.76
2023-01-04T09:43:58.031Z,86.15
2023-01-04T09:46:37.661Z,85.90
2023-01-04T09:49:16.527Z,86.26
2023-01-04T09:52:00.062Z,85.82
2023-01-04T09:54:37.221Z,84.91
2023-01-04T09:57:09.031Z,83.39
2023-01-04T09:59:35.615Z,83.78
2023-01-04T10:02:12.311Z,83.85
2023-01-04T10:04:45.624Z,82.93
2023-01-04T10:07:21.000Z,81.82
2023-01-04T10:09:47.592Z,81.39
2023-01-04T10:12:32.954Z,82.11
2023-01-04T10:15:20.816Z,81.79
2023-01-04T10:24:23.656Z,76.78
2023-01-04T10:26:51.253Z,74.89
2023-01-04T10:29:33.967Z,74.52
2023-01-04T10:32:34.291Z,73.48
2023-01-04T10:35:12.666Z,72.80
2023-01-04T10:37:39.340Z,73.56
2023-01-04T10:40:13.284Z,71.48
2023-01-04T10:42:51.281Z,72.50
2023-01-04T10:45:43.244Z,73.28
2023-01-04T10:48:24.221Z,71.62
2023-01-04T10:50:57.077Z,69.19
2023-01-04T10:53:32.710Z,68.03
2023-01-04T10:56:27.380Z,67.48
2023-01-04T10:59:16.027Z,68.22
2023-01-04T11:01:51.505Z,63.58
2023-01-04T11:04:28.810Z,61.99
2023-01-04T11:07:07.093Z,62.03
2023-01-04T11:09:41.802Z,58.55
2023-01-04T11:12:12.511Z,55.64
2023-01-04T11:14:38.906Z,54.72
2023-01-04T11:17:07.957Z,54.54
2023-01-04T11:19:34.399Z,53.37
2023-01-04T11:22:09.362Z,53.65
2023-01-04T11:24:54.081Z,53.65
2023-01-04T11:27:30.667Z,54.20
2023-01-04T11:53:31.177Z,61.44
2023-01-04T11:56:14.844Z,62.08
2023-01-04T11:59:01.573Z,62.01
2023-01-04T12:01:28.370Z,62.37
2023-01-04T12:03:55.593Z,62.17
2023-01-04T12:06:33.279Z,61.35
2023-01-04T12:09:00.200Z,61.89
2023-01-04T12:11:30.601Z,62.20
2023-01-04T12:13:58.987Z,62.69
2023-01-04T12:16:44.629Z,62.46
2023-01-04T12:19:18.637Z,62.02
2023-01-04T12:21:49.708Z,62.79
2023-01-04T12:24:20.806Z,63.89
2023-01-04T12:26:48.965Z,63.97
2023-01-04T12:29:44.181Z,64.23
2023-01-04T12:32:50.431Z,64.49
2023-01-04T12:35:52.291Z,65.30
2023-01-04T12:38:52.484Z,65.61
2023-01-04T12:41:20.611Z,65.88
2023-01-04T12:43:49.091Z,66.00
2023-01-04T12:46:52.895Z,65.47
2023-01-04T12:49:44.812Z,65.93
2023-01-04T12:52:48.370Z,65.81
2023-01-04T12:55:45.011Z,64.85
2023-01-04T12:59:24.844Z,65.58
2023-01-04T13:01:30.567Z,65.64
2023-01-04T13:04:05.577Z,65.00
2023-01-04T13:06:42.295Z,65.01
2023-01-04T13:09:23.779Z,65.27
2023-01-04T13:12:11.890Z,66.07
2023-01-04T13:14:42.907Z,65.71
2023-01-04T13:17:16.913Z,66.52
2023-01-04T13:19:43.790Z,66.79
2023-01-04T13:22:20.050Z,66.96
2023-01-04T13:24:50.380Z,66.85
2023-01-04T13:27:19.944Z,66.79
2023-01-04T13:29:47.765Z,67.14
2023-01-04T13:32:24.413Z,65.72
2023-01-04T13:34:54.852Z,64.64
2023-01-04T13:37:28.041Z,64.10
2023-01-04T13:40:21.439Z,61.41
2023-01-04T13:42:56.235Z,58.79
2023-01-04T13:45:39.856Z,57.19
2023-01-04T13:48:12.153Z,55.87
2023-01-04T13:50:46.328Z,55.56
2023-01-04T13:53:23.530Z,54.21
2023-01-04T13:55:53.647Z,52.26
2023-01-04T13:58:23.055Z,50.41
2023-01-04T14:00:56.568Z,50.35
2023-01-04T14:03:31.628Z,51.15
2023-01-04T14:06:21.177Z,52.70
2023-01-04T14:08:56.049Z,53.34
2023-01-04T14:11:39.192Z,54.13
2023-01-04T14:14:17.403Z,55.35
2023-01-04T14:16:43.946Z,56.33
2023-01-04T14:19:39.238Z,57.19
2023-01-04T14:22:25.077Z,57.80
2023-01-04T14:25:09.140Z,61.25
2023-01-04T14:27:42.586Z,61.64
2023-01-04T14:30:23.022Z,61.59
2023-01-04T14:33:02.521Z,61.91
2023-01-04T14:35:29.672Z,62.23
2023-01-04T14:38:10.631Z,63.21
2023-01-04T14:40:38.215Z,63.76
2023-01-04T14:43:33.109Z,64.82
2023-01-04T14:45:59.851Z,65.17
2023-01-04T14:48:29.105Z,64.96
2023-01-04T14:50:56.966Z,65.01
2023-01-04T14:53:24.259Z,65.22
2023-01-04T14:55:50.708Z,65.20
2023-01-04T14:58:17.308Z,65.36
2023-01-04T15:00:44.144Z,65.57
2023-01-04T15:03:11.005Z,66.22
2023-01-04T15:05:39.085Z,67.36
2023-01-04T15:08:08.573Z,67.61
2023-01-04T15:10:45.882Z,68.94
2023-01-04T15:13:15.271Z,69.27
2023-01-04T15:15:42.157Z,69.10
2023-01-04T15:18:09.219Z,69.51
2023-01-04T15:20:39.639Z,69.62
2023-01-04T15:23:06.583Z,69.78
2023-01-04T15:25:33.175Z,70.00
2023-01-04T15:27:59.652Z,70.37
2023-01-04T15:30:26.244Z,70.66
2023-01-04T15:32:58.484Z,70.65
2023-01-04T15:39:48.808Z,70.82
2023-01-04T15:42:25.939Z,70.58
2023-01-04T15:44:52.483Z,70.77
2023-01-04T15:47:18.926Z,70.38
2023-01-04T15:49:45.639Z,70.70
2023-01-04T15:52:12.291Z,70.50
2023-01-04T15:54:38.778Z,70.62
2023-01-04T15:57:05.566Z,70.59
2023-01-04T15:59:32.097Z,70.55
2023-01-04T16:01:58.792Z,70.56
2023-01-04T16:04:26.111Z,70.65
2023-01-04T16:06:53.693Z,70.62
2023-01-04T16:09:20.309Z,70.81
2023-01-04T16:11:57.991Z,70.68
2023-01-04T16:14:24.645Z,70.74
2023-01-04T16:16:51.189Z,70.78
2023-01-04T16:19:17.814Z,71.00
2023-01-04T16:21:44.744Z,71.02
2023-01-04T16:24:35.732Z,71.29
2023-01-04T16:26:57.868Z,71.21
2023-01-04T16:29:24.323Z,71.53
2023-01-04T16:31:51.012Z,71.79
2023-01-04T16:34:17.695Z,71.58
2023-01-04T16:36:44.144Z,71.79
2023-01-04T16:39:10.667Z,71.96
2023-01-04T16:41:37.358Z,72.11
2023-01-04T16:44:05.241Z,72.18
2023-01-04T16:46:36.151Z,72.32
2023-01-04T16:49:06.984Z,72.36
2023-01-04T16:51:35.215Z,72.52
2023-01-04T16:54:04.168Z,72.22
2023-01-04T16:56:30.950Z,72.02
2023-01-04T16:58:57.401Z,72.04
2023-01-04T17:01:27.185Z,72.28
2023-01-04T17:03:56.173Z,72.33
2023-01-04T17:06:25.525Z,72.14
2023-01-04T17:08:53.967Z,71.91
2023-01-04T17:12:18.966Z,72.14
2023-01-04T17:14:12.836Z,72.01
2023-01-04T17:16:40.171Z,72.09
2023-01-04T17:19:06.758Z,72.33
2023-01-04T17:21:35.021Z,72.46
2023-01-04T17:24:02.900Z,73.12
2023-01-04T17:26:31.351Z,73.11
2023-01-04T17:28:59.904Z,73.65
2023-01-04T17:31:30.850Z,74.06
2023-01-04T17:33:58.081Z,74.07
2023-01-04T17:36:24.535Z,74.69
2023-01-04T17:38:51.431Z,75.07
2023-01-04T17:41:21.837Z,74.25
2023-01-04T17:43:50.818Z,74.44
2023-01-04T17:46:23.125Z,75.34
2023-01-04T17:48:58.968Z,74.62
2023-01-04T17:51:37.617Z,74.47
2023-01-04T17:54:05.062Z,74.96
2023-01-04T17:56:33.565Z,74.86
2023-01-04T17:59:02.120Z,74.79
2023-01-04T18:01:30.020Z,74.82
2023-01-04T18:03:58.721Z,75.06
2023-01-04T18:06:28.510Z,75.25
2023-01-04T18:08:57.172Z,75.47
2023-01-04T18:11:24.547Z,77.71
2023-01-04T18:13:52.541Z,76.59
2023-01-04T18:16:25.127Z,77.34
2023-01-04T18:18:57.176Z,76.88
2023-01-04T18:21:28.857Z,76.54
2023-01-04T18:24:34.653Z,76.80
2023-01-04T18:29:32.182Z,82.89
2023-01-04T18:31:58.821Z,81.42
2023-01-04T18:34:25.816Z,80.79
2023-01-04T18:36:52.333Z,80.47
2023-01-04T18:39:18.818Z,80.35
2023-01-04T18:41:45.507Z,80.51
2023-01-04T18:46:58.667Z,81.77
2023-01-04T18:49:25.180Z,85.52
2023-01-04T18:51:51.644Z,85.22
2023-01-04T18:54:19.942Z,85.45
2023-01-04T18:56:46.951Z,83.78
2023-01-04T18:59:16.262Z,82.89
2023-01-04T19:01:43.314Z,82.82
2023-01-04T19:04:11.701Z,82.60
2023-01-04T19:06:39.506Z,82.23
2023-01-04T19:09:07.015Z,83.62
2023-01-04T19:11:34.764Z,84.92
2023-01-04T19:14:02.723Z,83.52
2023-01-04T19:16:30.233Z,83.11
2023-01-04T19:18:57.985Z,82.85
2023-01-04T19:21:24.496Z,82.49
2023-01-04T19:23:51.871Z,82.16
2023-01-04T19:26:18.399Z,82.10
2023-01-04T19:28:44.976Z,82.23
2023-01-04T19:31:12.487Z,82.47
2023-01-04T19:33:39.577Z,82.63
2023-01-04T19:36:08.401Z,82.64
2023-01-04T19:38:35.795Z,82.65
2023-01-04T19:41:03.183Z,82.72
2023-01-04T19:43:30.395Z,82.75
2023-01-04T19:45:57.004Z,82.86
2023-01-04T19:48:23.677Z,83.17
2023-01-04T19:51:03.050Z,83.61
2023-01-04T19:53:29.484Z,83.74
2023-01-04T19:55:56.402Z,83.67
2023-01-04T19:58:22.911Z,84.04
2023-01-04T20:00:54.571Z,84.75
2023-01-04T20:03:22.986Z,85.18
2023-01-04T20:05:49.713Z,84.66
2023-01-04T20:08:16.324Z,84.71
2023-01-04T20:10:43.181Z,84.59
2023-01-04T20:13:09.715Z,84.53
2023-01-04T20:15:38.633Z,84.60
2023-01-04T20:18:11.837Z,84.74
2023-01-04T20:20:42.529Z,84.65
2023-01-04T20:23:10.408Z,84.72
2023-01-04T20:25:40.004Z,84.58
2023-01-04T20:28:07.185Z,85.01
2023-01-04T20:30:34.134Z,84.78
2023-01-04T20:33:00.735Z,84.91
2023-01-04T20:35:28.100Z,85.06
2023-01-04T20:37:57.080Z,84.93
2023-01-04T20:40:24.875Z,85.03
2023-01-04T20:43:07.119Z,85.21
2023-01-04T20:45:33.846Z,85.35
2023-01-04T20:48:00.248Z,85.71
2023-01-04T20:50:26.895Z,85.86
2023-01-04T20:52:53.425Z,85.87
2023-01-04T20:55:19.854Z,85.98
2023-01-04T20:57:46.367Z,86.19
2023-01-04T21:00:13.583Z,86.25
2023-01-04T21:02:40.268Z,86.42
2023-01-04T21:05:07.529Z,89.45
2023-01-04T21:07:34.471Z,92.91
2023-01-04T21:10:01.004Z,91.65
2023-01-04T21:12:27.747Z,91.74
2023-01-04T21:14:54.247Z,90.33
2023-01-04T21:17:20.778Z,89.77
2023-01-04T21:19:47.259Z,89.11
2023-01-04T21:22:13.819Z,88.85
2023-01-04T21:24:40.460Z,88.57
2023-01-04T21:27:06.963Z,88.52
2023-01-04T21:29:33.431Z,88.47
2023-01-04T21:31:59.949Z,88.34
2023-01-04T21:34:27.389Z,88.33
2023-01-04T21:36:54.041Z,88.32
2023-01-04T21:39:20.567Z,88.31
2023-01-04T21:41:48.159Z,88.15
2023-01-04T21:44:14.966Z,88.36
2023-01-04T21:46:41.556Z,88.51
2023-01-04T21:49:10.801Z,88.50
2023-01-04T21:51:37.645Z,88.54
2023-01-04T21:54:04.610Z,88.39
2023-01-04T21:56:31.140Z,88.58
2023-01-04T21:58:57.686Z,88.65
2023-01-04T22:01:31.178Z,88.61
2023-01-04T22:04:01.320Z,88.55
2023-01-04T22:06:28.469Z,89.35
2023-01-04T22:08:55.286Z,89.04
2023-01-04T22:11:22.036Z,88.83
2023-01-04T22:13:49.803Z,88.93
2023-01-04T22:16:17.383Z,88.53
2023-01-04T22:18:47.479Z,88.61
2023-01-04T22:21:16.558Z,88.29
2023-01-04T22:23:43.219Z,88.57
2023-01-04T22:26:09.999Z,88.49
2023-01-04T22:28:37.443Z,88.61
2023-01-04T22:31:07.272Z,88.88
2023-01-04T22:33:35.720Z,88.82
2023-01-04T22:36:05.462Z,88.64
2023-01-04T22:38:34.784Z,88.82
2023-01-04T22:41:06.800Z,88.79
2023-01-04T22:43:34.930Z,88.79
2023-01-04T22:46:06.075Z,89.18
2023-01-04T22:48:34.083Z,89.09
2023-01-04T22:51:06.642Z,88.92
2023-01-04T22:53:33.386Z,89.24
2023-01-04T22:56:21.437Z,89.28
2023-01-04T22:58:53.304Z,89.24
2023-01-04T23:01:23.921Z,88.98
2023-01-04T23:03:51.123Z,88.92
2023-01-04T23:06:17.661Z,88.98
2023-01-04T23:08:44.270Z,88.98
2023-01-04T23:11:16.732Z,88.78
2023-01-04T23:13:43.572Z,88.77
2023-01-04T23:16:13.472Z,88.71
2023-01-04T23:18:40.284Z,89.23
2023-01-04T23:21:07.470Z,89.60
2023-01-04T23:23:34.123Z,90.88
2023-01-04T23:26:12.635Z,92.52
2023-01-04T23:28:39.266Z,90.68
2023-01-04T23:31:09.101Z,90.51
2023-01-04T23:33:37.101Z,90.09
2023-01-04T23:36:14.847Z,91.24
2023-01-04T23:38:42.928Z,93.97
2023-01-04T23:41:10.523Z,95.04
2023-01-04T23:43:38.169Z,95.40
2023-01-04T23:46:08.259Z,93.75
2023-01-04T23:48:34.803Z,93.16
2023-01-04T23:51:01.545Z,92.63
2023-01-04T23:53:28.598Z,92.50
2023-01-04T23:55:58.943Z,92.37
2023-01-04T23:58:26.913Z,92.30
